createdAt,value
2022-11-27T00:00:42.083Z,6.20
2022-11-27T00:03:10.520Z,6.20
2022-11-27T00:05:39.045Z,6.20
2022-11-27T00:08:07.621Z,6.20
2022-11-27T00:10:35.925Z,6.10
2022-11-27T00:13:04.155Z,6.10
2022-11-27T00:15:34.246Z,6.00
2022-11-27T00:18:02.796Z,6.00
2022-11-27T00:20:31.379Z,6.00
2022-11-27T00:22:59.746Z,6.00
2022-11-27T00:25:28.623Z,6.00
2022-11-27T00:27:57.051Z,5.90
2022-11-27T00:30:25.324Z,5.90
2022-11-27T00:32:55.120Z,5.90
2022-11-27T00:35:23.475Z,5.90
2022-11-27T00:37:52.071Z,5.90
2022-11-27T00:40:20.417Z,5.90
2022-11-27T00:42:48.839Z,5.90
2022-11-27T00:45:17.322Z,5.90
2022-11-27T00:47:45.574Z,5.90
2022-11-27T00:50:15.742Z,6.00
2022-11-27T00:52:44.100Z,6.00
2022-11-27T00:55:13.885Z,6.10
2022-11-27T00:57:42.388Z,6.10
2022-11-27T01:00:11.871Z,6.10
2022-11-27T01:02:40.261Z,6.20
2022-11-27T01:05:09.500Z,6.20
2022-11-27T01:07:39.575Z,6.20
2022-11-27T01:10:09.614Z,6.20
2022-11-27T01:12:38.012Z,6.20
2022-11-27T01:15:07.011Z,6.30
2022-11-27T01:17:35.305Z,6.30
2022-11-27T01:20:03.676Z,6.30
2022-11-27T01:22:32.051Z,6.30
2022-11-27T01:28:02.920Z,6.40
2022-11-27T01:30:33.353Z,6.40
2022-11-27T01:33:01.794Z,6.50
2022-11-27T01:35:34.272Z,6.50
2022-11-27T01:38:02.774Z,6.50
2022-11-27T01:40:38.245Z,6.50
2022-11-27T01:43:17.494Z,6.50
2022-11-27T01:45:56.142Z,6.50
2022-11-27T01:48:27.234Z,6.50
2022-11-27T01:50:58.513Z,6.50
2022-11-27T01:53:44.174Z,6.50
2022-11-27T01:56:28.295Z,6.50
2022-11-27T01:59:26.891Z,6.50
2022-11-27T02:02:04.350Z,6.50
2022-11-27T02:04:47.126Z,6.50
2022-11-27T02:07:23.017Z,6.50
2022-11-27T02:10:06.308Z,6.40
2022-11-27T02:12:52.810Z,6.40
2022-11-27T02:15:39.908Z,6.30
2022-11-27T02:18:14.889Z,6.30
2022-11-27T02:20:55.282Z,6.20
2022-11-27T02:24:05.422Z,6.10
2022-11-27T02:27:07.700Z,6.00
2022-11-27T02:29:39.903Z,6.00
2022-11-27T02:32:18.343Z,5.90
2022-11-27T02:34:54.350Z,5.90
2022-11-27T02:37:39.742Z,5.80
2022-11-27T02:40:12.992Z,5.80
2022-11-27T02:42:51.420Z,5.80
2022-11-27T02:45:35.355Z,5.70
2022-11-27T02:48:06.626Z,5.70
2022-11-27T02:50:46.837Z,5.60
2022-11-27T02:53:22.477Z,5.60
2022-11-27T02:56:01.662Z,5.60
2022-11-27T02:58:41.694Z,5.50
2022-11-27T03:01:18.615Z,5.50
2022-11-27T03:04:01.629Z,5.40
2022-11-27T03:06:40.214Z,5.30
2022-11-27T03:09:22.460Z,5.40
2022-11-27T03:11:54.254Z,5.30
2022-11-27T03:14:30.697Z,5.30
2022-11-27T03:17:15.034Z,5.30
2022-11-27T03:19:50.729Z,5.30
2022-11-27T03:22:22.859Z,5.20
2022-11-27T03:24:51.976Z,5.20
2022-11-27T03:27:30.892Z,5.20
2022-11-27T03:30:03.145Z,5.20
2022-11-27T03:32:33.914Z,5.20
2022-11-27T03:35:02.956Z,5.20
2022-11-27T03:37:36.340Z,5.10
2022-11-27T03:40:05.663Z,5.20
2022-11-27T03:42:40.161Z,5.10
2022-11-27T03:45:18.493Z,5.10
2022-11-27T03:48:00.873Z,5.10
2022-11-27T03:50:40.532Z,5.10
2022-11-27T03:53:19.350Z,5.00
2022-11-27T03:55:53.244Z,5.00
2022-11-27T03:58:28.091Z,5.00
2022-11-27T04:00:57.603Z,4.90
2022-11-27T04:03:41.910Z,5.00
2022-11-27T04:06:10.228Z,5.00
2022-11-27T04:08:41.757Z,4.90
2022-11-27T04:11:10.495Z,4.90
2022-11-27T04:13:38.953Z,4.90
2022-11-27T04:16:09.694Z,4.80
2022-11-27T04:18:39.814Z,4.80
2022-11-27T04:21:08.326Z,4.80
2022-11-27T04:23:37.798Z,4.80
2022-11-27T04:26:07.165Z,4.70
2022-11-27T04:28:46.956Z,4.70
2022-11-27T04:31:15.444Z,4.70
2022-11-27T04:33:47.953Z,4.70
2022-11-27T04:36:16.265Z,4.70
2022-11-27T04:38:44.594Z,4.60
2022-11-27T04:41:13.277Z,4.60
2022-11-27T04:43:44.418Z,4.60
2022-11-27T04:46:12.913Z,4.60
2022-11-27T04:48:41.575Z,4.60
2022-11-27T04:51:11.553Z,4.60
2022-11-27T04:53:40.006Z,4.60
2022-11-27T04:56:10.273Z,4.60
2022-11-27T04:58:38.615Z,4.70
2022-11-27T05:01:08.947Z,4.70
2022-11-27T05:03:37.511Z,4.70
2022-11-27T05:06:06.430Z,4.80
2022-11-27T05:08:36.990Z,4.80
2022-11-27T05:11:08.009Z,4.80
2022-11-27T05:13:38.785Z,4.80
2022-11-27T05:16:08.182Z,4.80
2022-11-27T05:18:37.276Z,4.80
2022-11-27T05:21:08.092Z,4.80
2022-11-27T05:23:38.269Z,4.80
2022-11-27T05:26:09.399Z,4.70
2022-11-27T05:28:43.081Z,4.70
2022-11-27T05:31:14.788Z,4.70
2022-11-27T05:33:44.872Z,4.70
2022-11-27T05:36:13.552Z,4.70
2022-11-27T05:38:47.709Z,4.70
2022-11-27T05:41:16.422Z,4.70
2022-11-27T05:43:48.255Z,4.60
2022-11-27T05:46:21.632Z,4.60
2022-11-27T05:48:51.119Z,4.60
2022-11-27T05:51:20.820Z,4.50
2022-11-27T05:53:51.950Z,4.50
2022-11-27T05:56:22.054Z,4.50
2022-11-27T05:58:54.041Z,4.40
2022-11-27T06:01:22.511Z,4.50
2022-11-27T06:03:52.543Z,4.50
2022-11-27T06:06:22.135Z,4.50
2022-11-27T06:08:52.104Z,4.50
2022-11-27T06:11:22.573Z,4.60
2022-11-27T06:13:51.391Z,4.50
2022-11-27T06:16:21.970Z,4.50
2022-11-27T06:18:51.574Z,4.50
2022-11-27T06:21:20.574Z,4.60
2022-11-27T06:23:49.792Z,4.60
2022-11-27T06:26:21.565Z,4.60
2022-11-27T06:28:50.975Z,4.70
2022-11-27T06:31:21.923Z,4.70
2022-11-27T06:33:51.588Z,4.80
2022-11-27T06:36:21.301Z,4.80
2022-11-27T06:38:50.952Z,4.90
2022-11-27T06:41:24.768Z,5.00
2022-11-27T06:43:54.329Z,5.10
2022-11-27T06:46:25.933Z,5.10
2022-11-27T06:49:03.148Z,5.20
2022-11-27T06:51:33.486Z,5.20
2022-11-27T06:54:03.414Z,5.30
2022-11-27T06:56:33.962Z,5.30
2022-11-27T06:59:03.579Z,5.30
2022-11-27T07:01:39.944Z,5.40
2022-11-27T07:04:08.491Z,5.40
2022-11-27T07:06:36.811Z,5.40
2022-11-27T07:09:09.599Z,5.50
2022-11-27T07:11:41.236Z,5.50
2022-11-27T07:14:09.763Z,5.50
2022-11-27T07:16:38.593Z,5.60
2022-11-27T07:19:11.189Z,5.60
2022-11-27T07:21:47.023Z,5.70
2022-11-27T07:24:16.426Z,5.70
2022-11-27T07:26:49.984Z,5.80
2022-11-27T07:29:18.255Z,5.80
2022-11-27T07:31:47.786Z,5.80
2022-11-27T07:34:21.689Z,5.90
2022-11-27T07:36:50.319Z,6.00
2022-11-27T07:39:33.745Z,6.00
2022-11-27T07:42:36.783Z,6.10
2022-11-27T07:44:57.256Z,6.10
2022-11-27T07:47:26.046Z,6.20
2022-11-27T07:49:58.249Z,6.30
2022-11-27T07:52:26.843Z,6.30
2022-11-27T07:54:55.548Z,6.30
2022-11-27T07:57:25.220Z,6.40
2022-11-27T07:59:54.450Z,6.50
2022-11-27T08:02:24.202Z,6.50
2022-11-27T08:04:52.404Z,6.60
2022-11-27T08:07:20.662Z,6.60
2022-11-27T08:09:48.994Z,6.60
2022-11-27T08:12:17.519Z,6.50
2022-11-27T08:14:47.312Z,6.60
2022-11-27T08:17:15.570Z,6.60
2022-11-27T08:19:43.808Z,6.60
2022-11-27T08:22:14.008Z,6.60
2022-11-27T08:24:43.444Z,6.70
2022-11-27T08:27:11.993Z,6.70
2022-11-27T08:29:40.226Z,6.70
2022-11-27T08:32:10.275Z,6.80
2022-11-27T08:34:39.239Z,6.80
2022-11-27T08:37:07.924Z,6.80
2022-11-27T08:39:36.151Z,6.80
2022-11-27T08:42:04.399Z,6.70
2022-11-27T08:44:32.591Z,6.80
2022-11-27T08:47:18.055Z,6.80
2022-11-27T08:49:47.338Z,6.70
2022-11-27T08:52:16.049Z,6.70
2022-11-27T08:54:44.324Z,6.70
2022-11-27T08:57:12.659Z,6.80
2022-11-27T08:59:41.000Z,6.80
2022-11-27T09:02:21.399Z,6.90
2022-11-27T09:04:51.285Z,6.90
2022-11-27T09:07:19.753Z,7.00
2022-11-27T09:09:50.371Z,7.00
2022-11-27T09:12:18.807Z,7.00
2022-11-27T09:14:47.081Z,7.10
2022-11-27T09:17:15.384Z,7.20
2022-11-27T09:19:43.702Z,7.20
2022-11-27T09:22:13.407Z,7.30
2022-11-27T09:24:42.099Z,7.40
2022-11-27T09:27:10.775Z,7.50
2022-11-27T09:29:39.382Z,7.60
2022-11-27T09:32:07.849Z,7.70
2022-11-27T09:34:37.608Z,7.80
2022-11-27T09:37:06.303Z,7.90
2022-11-27T09:39:36.954Z,7.90
2022-11-27T09:42:09.805Z,8.10
2022-11-27T09:44:43.071Z,8.00
2022-11-27T09:47:18.529Z,8.10
2022-11-27T09:49:52.106Z,8.10
2022-11-27T09:52:26.980Z,8.10
2022-11-27T09:55:01.666Z,8.30
2022-11-27T09:57:34.520Z,8.30
2022-11-27T10:00:07.944Z,8.50
2022-11-27T10:02:36.928Z,8.70
2022-11-27T10:05:14.383Z,8.90
2022-11-27T10:08:07.184Z,9.10
2022-11-27T10:10:44.830Z,9.40
2022-11-27T10:13:40.244Z,9.60
2022-11-27T10:16:20.243Z,9.60
2022-11-27T10:18:53.062Z,9.60
2022-11-27T10:21:31.162Z,9.70
2022-11-27T10:24:05.442Z,10.00
2022-11-27T10:26:40.242Z,10.40
2022-11-27T10:29:18.560Z,10.70
2022-11-27T10:31:50.751Z,11.10
2022-11-27T10:34:29.470Z,11.50
2022-11-27T10:36:59.542Z,11.60
2022-11-27T10:39:34.996Z,11.40
2022-11-27T10:42:10.630Z,11.10
2022-11-27T10:44:43.226Z,10.80
2022-11-27T10:47:15.066Z,10.80
2022-11-27T10:49:43.967Z,10.60
2022-11-27T10:52:17.596Z,10.50
2022-11-27T10:54:51.089Z,10.40
2022-11-27T10:57:52.140Z,10.30
2022-11-27T11:00:23.150Z,10.20
2022-11-27T11:03:00.371Z,10.10
2022-11-27T11:05:41.333Z,10.10
2022-11-27T11:08:20.458Z,10.00
2022-11-27T11:10:54.049Z,10.00
2022-11-27T11:13:27.453Z,10.00
2022-11-27T11:15:59.064Z,9.90
2022-11-27T11:18:30.012Z,9.90
2022-11-27T11:21:00.616Z,9.90
2022-11-27T11:23:32.663Z,9.80
2022-11-27T11:26:24.424Z,9.80
2022-11-27T11:28:59.954Z,9.80
2022-11-27T11:31:35.357Z,9.80
2022-11-27T11:34:10.924Z,9.80
2022-11-27T11:36:41.502Z,9.80
2022-11-27T11:39:28.294Z,9.80
2022-11-27T11:41:57.227Z,9.80
2022-11-27T11:44:34.238Z,9.90
2022-11-27T11:47:03.320Z,9.90
2022-11-27T11:49:35.408Z,9.90
2022-11-27T11:52:36.881Z,9.90
2022-11-27T11:55:15.148Z,9.90
2022-11-27T11:58:10.330Z,9.90
2022-11-27T12:01:11.788Z,9.90
2022-11-27T12:03:51.224Z,10.00
2022-11-27T12:06:41.598Z,9.90
2022-11-27T12:09:47.610Z,9.90
2022-11-27T12:12:27.808Z,9.90
2022-11-27T12:15:02.822Z,10.00
2022-11-27T12:17:49.453Z,10.20
2022-11-27T12:20:21.289Z,10.40
2022-11-27T12:23:28.223Z,10.60
2022-11-27T12:26:05.032Z,10.60
2022-11-27T12:29:03.965Z,10.70
2022-11-27T12:31:46.204Z,10.80
2022-11-27T12:34:26.039Z,11.10
2022-11-27T12:37:13.852Z,11.50
2022-11-27T12:39:55.311Z,11.40
2022-11-27T12:42:29.650Z,11.40
2022-11-27T12:45:04.163Z,11.20
2022-11-27T12:47:40.536Z,11.20
2022-11-27T12:50:18.919Z,11.10
2022-11-27T12:52:54.479Z,11.00
2022-11-27T12:55:26.926Z,10.70
2022-11-27T12:58:01.614Z,10.60
2022-11-27T13:00:32.283Z,10.30
2022-11-27T13:03:07.774Z,10.20
2022-11-27T13:05:48.593Z,10.00
2022-11-27T13:08:23.058Z,9.90
2022-11-27T13:10:56.781Z,9.90
2022-11-27T13:13:30.377Z,9.80
2022-11-27T13:16:05.074Z,9.70
2022-11-27T13:18:37.018Z,9.70
2022-11-27T13:21:12.143Z,9.50
2022-11-27T13:23:40.413Z,9.50
2022-11-27T13:26:15.286Z,9.40
2022-11-27T13:28:45.574Z,9.40
2022-11-27T13:31:21.591Z,9.30
2022-11-27T13:33:51.748Z,9.30
2022-11-27T13:36:24.083Z,9.20
2022-11-27T13:38:59.080Z,9.20
2022-11-27T13:41:33.825Z,9.20
2022-11-27T13:44:05.705Z,9.10
2022-11-27T13:46:48.589Z,9.10
2022-11-27T13:49:26.279Z,9.00
2022-11-27T13:52:06.241Z,9.00
2022-11-27T13:54:34.601Z,8.90
2022-11-27T13:57:15.946Z,8.90
2022-11-27T13:59:56.941Z,8.90
2022-11-27T14:02:25.976Z,8.80
2022-11-27T14:04:56.693Z,8.80
2022-11-27T14:07:37.819Z,8.80
2022-11-27T14:10:13.267Z,8.70
2022-11-27T14:12:44.003Z,8.60
2022-11-27T14:15:23.520Z,8.50
2022-11-27T14:17:53.556Z,8.50
2022-11-27T14:20:26.463Z,8.40
2022-11-27T14:23:14.769Z,8.40
2022-11-27T14:25:43.287Z,8.30
2022-11-27T14:28:17.999Z,8.30
2022-11-27T14:30:49.156Z,8.30
2022-11-27T14:33:23.577Z,8.20
2022-11-27T14:35:53.787Z,8.20
2022-11-27T14:38:24.322Z,8.10
2022-11-27T14:40:54.018Z,8.00
2022-11-27T14:43:25.957Z,8.00
2022-11-27T14:45:58.276Z,7.90
2022-11-27T14:48:28.317Z,7.80
2022-11-27T14:50:58.138Z,7.80
2022-11-27T14:53:29.745Z,7.70
2022-11-27T14:55:59.968Z,7.60
2022-11-27T14:58:29.951Z,7.60
2022-11-27T15:01:01.021Z,7.50
2022-11-27T15:03:30.143Z,7.50
2022-11-27T15:06:00.524Z,7.40
2022-11-27T15:08:34.164Z,7.40
2022-11-27T15:11:04.034Z,7.30
2022-11-27T15:13:35.014Z,7.30
2022-11-27T15:16:06.133Z,7.20
2022-11-27T15:18:38.457Z,7.20
2022-11-27T15:21:12.350Z,7.10
2022-11-27T15:23:46.326Z,7.10
2022-11-27T15:26:19.906Z,7.10
2022-11-27T15:28:53.956Z,7.00
2022-11-27T15:31:25.879Z,7.00
2022-11-27T15:34:02.362Z,6.90
2022-11-27T15:36:38.245Z,6.80
2022-11-27T15:39:22.878Z,6.80
2022-11-27T15:41:56.934Z,6.70
2022-11-27T15:44:26.272Z,6.70
2022-11-27T15:46:56.504Z,6.70
2022-11-27T15:49:25.230Z,6.60
2022-11-27T15:51:53.415Z,6.60
2022-11-27T15:54:23.115Z,6.50
2022-11-27T15:56:51.517Z,6.50
2022-11-27T15:59:20.926Z,6.50
2022-11-27T16:01:49.690Z,6.40
2022-11-27T16:04:18.308Z,6.40
2022-11-27T16:06:46.583Z,6.40
2022-11-27T16:09:14.731Z,6.30
2022-11-27T16:11:44.436Z,6.30
2022-11-27T16:14:13.103Z,6.30
2022-11-27T16:16:41.350Z,6.20
2022-11-27T16:19:12.230Z,6.20
2022-11-27T16:21:40.623Z,6.30
2022-11-27T16:24:14.975Z,6.20
2022-11-27T16:26:44.775Z,6.20
2022-11-27T16:29:12.989Z,6.20
2022-11-27T16:31:41.363Z,6.10
2022-11-27T16:34:09.594Z,6.10
2022-11-27T16:36:37.878Z,6.10
2022-11-27T16:39:06.374Z,6.00
2022-11-27T16:41:34.600Z,6.00
2022-11-27T16:44:11.715Z,6.00
2022-11-27T16:46:40.487Z,6.00
2022-11-27T16:49:09.163Z,6.00
2022-11-27T16:51:39.762Z,5.90
2022-11-27T16:54:12.376Z,5.90
2022-11-27T16:56:40.653Z,5.90
2022-11-27T16:59:11.910Z,5.80
2022-11-27T17:01:41.828Z,5.80
2022-11-27T17:04:15.491Z,5.70
2022-11-27T17:06:43.778Z,5.70
2022-11-27T17:09:12.000Z,5.70
2022-11-27T17:11:45.598Z,5.70
2022-11-27T17:14:16.244Z,5.70
2022-11-27T17:16:44.954Z,5.70
2022-11-27T17:19:14.332Z,5.60
2022-11-27T17:21:43.130Z,5.50
2022-11-27T17:24:15.281Z,5.50
2022-11-27T17:26:44.651Z,5.50
2022-11-27T17:29:15.632Z,5.40
2022-11-27T17:31:44.367Z,5.40
2022-11-27T17:34:14.753Z,5.30
2022-11-27T17:36:45.083Z,5.30
2022-11-27T17:39:14.925Z,5.20
2022-11-27T17:41:44.929Z,5.20
2022-11-27T17:44:14.953Z,5.10
2022-11-27T17:46:45.453Z,5.10
2022-11-27T17:49:13.601Z,5.00
2022-11-27T17:51:42.299Z,5.00
2022-11-27T17:54:11.643Z,5.00
2022-11-27T17:56:40.037Z,4.90
2022-11-27T17:59:08.286Z,4.90
2022-11-27T18:01:38.094Z,4.80
2022-11-27T18:04:06.590Z,4.90
2022-11-27T18:06:36.207Z,4.80
2022-11-27T18:09:05.554Z,4.80
2022-11-27T18:11:34.361Z,4.70
2022-11-27T18:14:03.142Z,4.70
2022-11-27T18:16:34.062Z,4.70
2022-11-27T18:19:06.939Z,4.60
2022-11-27T18:21:35.685Z,4.60
2022-11-27T18:27:08.132Z,4.60
2022-11-27T18:29:37.505Z,4.70
2022-11-27T18:32:06.339Z,4.60
2022-11-27T18:34:36.279Z,4.60
2022-11-27T18:37:05.311Z,4.70
2022-11-27T18:39:33.687Z,4.60
2022-11-27T18:42:01.905Z,4.60
2022-11-27T18:44:30.018Z,4.60
2022-11-27T18:46:58.298Z,4.60
2022-11-27T18:49:27.155Z,4.60
2022-11-27T18:51:56.812Z,4.60
2022-11-27T18:54:25.766Z,4.60
2022-11-27T18:56:53.967Z,4.60
2022-11-27T18:59:22.369Z,4.60
2022-11-27T19:01:50.666Z,4.60
2022-11-27T19:04:18.893Z,4.60
2022-11-27T19:06:47.641Z,4.60
2022-11-27T19:09:18.121Z,4.60
2022-11-27T19:11:46.426Z,4.50
2022-11-27T19:14:14.564Z,4.30
2022-11-27T19:16:46.600Z,4.30
2022-11-27T19:22:08.006Z,4.30
2022-11-27T19:24:38.807Z,4.30
2022-11-27T19:27:07.119Z,4.30
2022-11-27T19:29:35.399Z,4.30
2022-11-27T19:32:03.921Z,4.30
2022-11-27T19:34:32.515Z,4.40
2022-11-27T19:37:01.086Z,4.30
2022-11-27T19:39:29.880Z,4.30
2022-11-27T19:41:59.709Z,4.40
2022-11-27T19:44:28.013Z,4.40
2022-11-27T19:46:56.463Z,4.40
2022-11-27T19:49:26.297Z,4.40
2022-11-27T19:51:54.573Z,4.40
2022-11-27T19:54:22.790Z,4.40
2022-11-27T19:56:51.165Z,4.40
2022-11-27T19:59:25.608Z,4.40
2022-11-27T20:01:54.343Z,4.40
2022-11-27T20:04:22.760Z,4.40
2022-11-27T20:06:52.990Z,4.50
2022-11-27T20:09:21.301Z,4.40
2022-11-27T20:11:49.657Z,4.50
2022-11-27T20:14:19.547Z,4.40
2022-11-27T20:16:49.337Z,4.40
2022-11-27T20:19:17.773Z,4.50
2022-11-27T20:21:46.181Z,4.40
2022-11-27T20:24:15.023Z,4.40
2022-11-27T20:26:43.500Z,4.40
2022-11-27T20:29:12.589Z,4.40
2022-11-27T20:31:44.707Z,4.40
2022-11-27T20:34:19.985Z,4.50
2022-11-27T20:36:49.489Z,4.50
2022-11-27T20:39:21.695Z,4.50
2022-11-27T20:41:51.814Z,4.50
2022-11-27T20:44:20.270Z,4.50
2022-11-27T20:46:48.483Z,4.50
2022-11-27T20:49:18.570Z,4.50
2022-11-27T20:51:48.974Z,4.50
2022-11-27T20:54:17.683Z,4.40
2022-11-27T20:56:47.630Z,4.50
2022-11-27T20:59:15.887Z,4.40
2022-11-27T21:01:44.358Z,4.30
2022-11-27T21:04:22.805Z,4.30
2022-11-27T21:06:51.810Z,4.30
2022-11-27T21:09:21.512Z,4.30
2022-11-27T21:11:50.008Z,4.40
2022-11-27T21:14:19.828Z,4.30
2022-11-27T21:16:49.939Z,4.30
2022-11-27T21:19:21.869Z,4.30
2022-11-27T21:21:50.802Z,4.30
2022-11-27T21:24:20.354Z,4.30
2022-11-27T21:26:49.252Z,4.40
2022-11-27T21:29:17.563Z,4.40
2022-11-27T21:31:47.445Z,4.40
2022-11-27T21:34:15.897Z,4.30
2022-11-27T21:36:45.915Z,4.30
2022-11-27T21:39:20.333Z,4.30
2022-11-27T21:41:50.314Z,4.30
2022-11-27T21:44:19.215Z,4.30
2022-11-27T21:46:48.144Z,4.30
2022-11-27T21:49:17.568Z,4.30
2022-11-27T21:51:47.699Z,4.30
2022-11-27T21:54:16.327Z,4.30
2022-11-27T21:56:44.706Z,4.30
2022-11-27T21:59:15.042Z,4.20
2022-11-27T22:01:46.192Z,4.20
2022-11-27T22:04:14.635Z,4.30
2022-11-27T22:06:45.157Z,4.30
2022-11-27T22:09:16.051Z,4.30
2022-11-27T22:11:45.354Z,4.30
2022-11-27T22:14:14.075Z,4.30
2022-11-27T22:16:45.843Z,4.40
2022-11-27T22:19:15.533Z,4.30
2022-11-27T22:21:44.681Z,4.30
2022-11-27T22:24:19.466Z,4.30
2022-11-27T22:26:48.681Z,4.20
2022-11-27T22:29:17.062Z,4.30
2022-11-27T22:31:45.265Z,4.20
2022-11-27T22:34:13.518Z,4.30
2022-11-27T22:36:41.801Z,4.30
2022-11-27T22:39:10.125Z,4.20
2022-11-27T22:41:41.400Z,4.20
2022-11-27T22:44:10.930Z,4.20
2022-11-27T22:46:42.447Z,4.20
2022-11-27T22:49:12.946Z,4.20
2022-11-27T22:51:41.712Z,4.20
2022-11-27T22:54:12.412Z,4.30
2022-11-27T22:56:42.094Z,4.20
2022-11-27T23:02:00.348Z,4.20
2022-11-27T23:04:28.622Z,4.20
2022-11-27T23:06:56.778Z,4.10
2022-11-27T23:09:25.047Z,4.10
2022-11-27T23:11:56.526Z,4.10
2022-11-27T23:14:24.846Z,4.10
2022-11-27T23:16:53.222Z,4.20
2022-11-27T23:19:21.443Z,4.20
2022-11-27T23:21:49.636Z,4.20
2022-11-27T23:24:18.659Z,4.20
2022-11-27T23:26:47.670Z,4.20
2022-11-27T23:29:17.504Z,4.20
2022-11-27T23:31:45.760Z,4.30
2022-11-27T23:34:16.110Z,4.30
2022-11-27T23:36:45.046Z,4.30
2022-11-27T23:39:15.205Z,4.20
2022-11-27T23:41:43.811Z,4.30
2022-11-27T23:44:12.139Z,4.30
2022-11-27T23:46:41.921Z,4.30
2022-11-27T23:49:10.446Z,4.30
2022-11-27T23:51:38.905Z,4.30
2022-11-27T23:54:10.290Z,4.30
2022-11-27T23:56:39.875Z,4.30
2022-11-27T23:59:08.779Z,4.30
